Uraga Maru — JD2163 — position and weather

sailwx.info

Track history (hours):
 
Tides and Currents Weather Stations Pressure Air Temp Water Temp Dewpoint Dewpoint Depression Visibility Wind Speed Wind Dir Waves Ship Positions

Uraga Maru

Last reported at 2014-Aug-27 22:32 UTC. Time now 2014-Aug-27 23:15 UTC.
Position N 35°17' E 139°41'.

Length 40 m; draft 2.8 m.

Type: Tug. MMSI: 431101119.

Date/timePositionNaut miles runAvg speedWind from/ knotsBaromVisibWave heightAir tempDewpointWater temp
2014-Aug-27 22:32N 35°17' E 139°41'0 0.0
2014-Aug-27 09:29N 35°17' E 139°41'2 2.2
2014-Aug-27 08:33N 35°19' E 139°39'1 0.8
2014-Aug-27 07:34N 35°19' E 139°40'0 0.1
2014-Aug-27 06:33N 35°19' E 139°40'5 4.8
2014-Aug-27 05:34N 35°16' E 139°45'3 3.3
2014-Aug-27 04:33N 35°19' E 139°43'4 4.2
2014-Aug-27 03:33N 35°23' E 139°40'0 0.0
2014-Aug-27 02:33N 35°23' E 139°40'4 4.0
2014-Aug-27 01:33N 35°22' E 139°45'10 9.8
2014-Aug-27 00:33N 35°12' E 139°47'2 2.2
2014-Aug-26 23:33N 35°10' E 139°47'7 7.1
2014-Aug-26 22:33N 35°17' E 139°45'1 0.7
2014-Aug-26 21:33N 35°17' E 139°45'6 6.2
2014-Aug-26 20:33N 35°11' E 139°47'8 7.7
2014-Aug-26 19:33N 35°17' E 139°41'0 0.0
2014-Aug-26 18:33N 35°17' E 139°41'0 0.0
2014-Aug-26 17:33N 35°17' E 139°41'0 0.0
2014-Aug-26 16:33N 35°17' E 139°41'0 0.0
2014-Aug-26 15:33N 35°17' E 139°41'0 0.0
2014-Aug-26 14:33N 35°17' E 139°41'0 0.0
2014-Aug-26 13:33N 35°17' E 139°41'0 0.0
2014-Aug-26 12:33N 35°17' E 139°41'0 0.0
2014-Aug-26 11:33N 35°17' E 139°41'0 0.0
2014-Aug-26 10:33N 35°17' E 139°41'0 0.0
2014-Aug-26 05:22N 35°17' E 139°41'6 7.0
2014-Aug-26 04:33N 35°14' E 139°46'1111.0
2014-Aug-26 03:33N 35°25' E 139°43'1211.9
2014-Aug-26 02:34N 35°30' E 139°56'1 1.5
2014-Aug-26 01:33N 35°29' E 139°58'9 9.1
2014-Aug-26 00:33N 35°23' E 139°48'9 9.1
2014-Aug-25 23:33N 35°17' E 139°41'0 0.0
2014-Aug-25 22:32N 35°17' E 139°41'0 0.0
2014-Aug-25 21:33N 35°17' E 139°41'0 0.0
2014-Aug-25 20:33N 35°17' E 139°41'0 0.0
2014-Aug-25 19:32N 35°17' E 139°41'0 0.0
2014-Aug-25 18:33N 35°17' E 139°41'0 0.0
2014-Aug-25 17:32N 35°17' E 139°41'0 0.0
2014-Aug-25 16:31N 35°17' E 139°41'0 0.0
2014-Aug-25 15:32N 35°17' E 139°41'0 0.0
2014-Aug-25 14:31N 35°17' E 139°41'0 0.0
2014-Aug-25 13:30N 35°17' E 139°41'0 0.0
2014-Aug-25 12:32N 35°17' E 139°41'0 0.0
2014-Aug-25 11:33N 35°17' E 139°41'0 0.0
2014-Aug-25 10:33N 35°17' E 139°41'0 0.0
2014-Aug-25 09:29N 35°17' E 139°41'0 0.0
2014-Aug-25 08:32N 35°17' E 139°41'0 0.0
2014-Aug-25 07:32N 35°17' E 139°41'0 0.0
2014-Aug-25 06:31N 35°17' E 139°41'0 0.0
2014-Aug-25 05:26N 35°17' E 139°41'0 0.0
2014-Aug-25 04:33N 35°17' E 139°41'0 0.0
2014-Aug-25 03:33N 35°17' E 139°41'0 0.0
2014-Aug-25 02:33N 35°17' E 139°41'0 0.0
2014-Aug-25 01:33N 35°17' E 139°41'2 2.4
2014-Aug-25 00:33N 35°19' E 139°42'5 4.6
2014-Aug-24 23:34N 35°23' E 139°45'1111.0
2014-Aug-24 22:33N 35°12' E 139°47'3 2.9
2014-Aug-24 21:33N 35°14' E 139°46'3 2.8
2014-Aug-24 20:33N 35°17' E 139°45'7 7.1
2014-Aug-24 19:33N 35°10' E 139°47'3 2.8
2014-Aug-24 18:33N 35°13' E 139°45'10 9.7
2014-Aug-24 17:34N 35°22' E 139°42'2 1.6
2014-Aug-24 16:33N 35°23' E 139°44'0 0.0
2014-Aug-24 15:33N 35°23' E 139°44'7 6.8
2014-Aug-24 14:33N 35°16' E 139°45'3 3.1
2014-Aug-24 13:33N 35°19' E 139°43'7 6.5
2014-Aug-24 12:33N 35°24' E 139°48'2 2.0
2014-Aug-24 11:34N 35°23' E 139°51'0 0.0
2014-Aug-24 10:33N 35°23' E 139°51'8 8.3
2014-Aug-24 09:34N 35°17' E 139°44'3 2.6
2014-Aug-24 08:33N 35°19' E 139°43'6 5.6
2014-Aug-24 07:34N 35°25' E 139°42'8 7.6
2014-Aug-24 06:31N 35°17' E 139°41'0 0.0
2014-Aug-24 05:33N 35°17' E 139°41'0 0.0
2014-Aug-24 04:34N 35°17' E 139°41'0 0.0
2014-Aug-24 03:29N 35°17' E 139°41'0 0.0
2014-Aug-24 02:33N 35°17' E 139°41'0 0.0
2014-Aug-24 01:31N 35°17' E 139°41'0 0.0
2014-Aug-24 00:26N 35°17' E 139°41'0 0.0
2014-Aug-23 23:20N 35°17' E 139°41'0 0.2
2014-Aug-23 22:34N 35°17' E 139°41'0 0.0
2014-Aug-23 21:33N 35°17' E 139°41'0 0.0
2014-Aug-23 20:33N 35°17' E 139°41'0 0.0
2014-Aug-23 19:33N 35°17' E 139°41'0 0.0
2014-Aug-23 03:33N 35°17' E 139°41'0 0.0
2014-Aug-23 02:34N 35°17' E 139°41'0 0.0
2014-Aug-23 01:34N 35°17' E 139°41'0 0.0
2014-Aug-23 00:33N 35°17' E 139°41'4 4.4
2014-Aug-22 23:33N 35°15' E 139°45'4 4.3
2014-Aug-22 22:33N 35°19' E 139°43'9 9.2
2014-Aug-22 21:33N 35°28' E 139°45'9 8.6
2014-Aug-22 20:33N 35°20' E 139°44'10 9.7
2014-Aug-22 19:33N 35°10' E 139°48'9 8.9
2014-Aug-22 18:34N 35°17' E 139°41'0 0.2
2014-Aug-22 17:33N 35°17' E 139°41'0 0.0
2014-Aug-22 16:33N 35°17' E 139°41'0 0.0
2014-Aug-22 15:33N 35°17' E 139°41'0 0.0
2014-Aug-22 14:33N 35°17' E 139°41'0 0.0
2014-Aug-22 13:33N 35°17' E 139°41'2 1.9
2014-Aug-22 12:33N 35°19' E 139°42'4 4.2
2014-Aug-22 11:33N 35°16' E 139°46'5 5.4
2014-Aug-22 10:33N 35°11' E 139°47'4 3.2
2014-Aug-22 09:16N 35°13' E 139°43'0 0.0
2014-Aug-22 08:32N 35°13' E 139°43'4 4.5
2014-Aug-22 07:33N 35°17' E 139°41'1 0.6
2014-Aug-22 06:32N 35°17' E 139°41'0 0.0
2014-Aug-22 05:33N 35°17' E 139°41'0 0.0
2014-Aug-22 04:33N 35°17' E 139°41'0 0.0
2014-Aug-22 03:32N 35°17' E 139°41'0 0.0
2014-Aug-22 02:33N 35°17' E 139°41'0 0.0
2014-Aug-22 01:32N 35°17' E 139°41'0 0.0
2014-Aug-22 00:33N 35°17' E 139°41'0 0.0
2014-Aug-21 23:33N 35°17' E 139°41'0 0.1
2014-Aug-21 22:33N 35°17' E 139°41'0 0.0
2014-Aug-21 21:33N 35°17' E 139°41'0 0.0
2014-Aug-21 20:33N 35°17' E 139°41'0 0.0
2014-Aug-21 19:33N 35°17' E 139°41'0 0.0
2014-Aug-21 18:33N 35°17' E 139°41'0 0.0
2014-Aug-21 17:33N 35°17' E 139°41'0 0.0
2014-Aug-21 16:33N 35°17' E 139°41'0 0.0
2014-Aug-21 15:31N 35°17' E 139°41'0 0.0
2014-Aug-21 14:33N 35°17' E 139°41'0 0.0
2014-Aug-21 13:33N 35°17' E 139°41'0 0.0
2014-Aug-21 12:33N 35°17' E 139°41'0 0.0
2014-Aug-21 11:33N 35°17' E 139°41'0 0.0
2014-Aug-21 10:33N 35°17' E 139°41'0 0.0
2014-Aug-21 09:33N 35°17' E 139°41'0 0.0
2014-Aug-21 08:33N 35°17' E 139°41'0 0.0
2014-Aug-21 07:33N 35°17' E 139°41'0 0.0
2014-Aug-21 06:33N 35°17' E 139°41'0 0.0
2014-Aug-21 05:31N 35°17' E 139°41'0 0.0
2014-Aug-21 04:32N 35°17' E 139°41'0 0.0
2014-Aug-21 03:33N 35°17' E 139°41'6 5.8
2014-Aug-21 02:33N 35°14' E 139°46'10 9.9
2014-Aug-21 01:33N 35°23' E 139°42'7 6.5
2014-Aug-21 00:34N 35°23' E 139°50'0 0.4
2014-Aug-20 23:33N 35°23' E 139°50'10 9.5
2014-Aug-20 22:33N 35°17' E 139°41'0 0.2
2014-Aug-20 21:33N 35°17' E 139°41'0 0.3
2014-Aug-20 20:33N 35°17' E 139°41'0 0.0
2014-Aug-20 19:29N 35°17' E 139°41'0 0.0
2014-Aug-20 18:30N 35°17' E 139°41'0 0.0
2014-Aug-20 17:24N 35°17' E 139°41'0 0.0
2014-Aug-20 16:30N 35°17' E 139°41'0 0.0
2014-Aug-20 15:34N 35°17' E 139°41'0 0.0
2014-Aug-20 14:30N 35°17' E 139°41'0 0.0
2014-Aug-20 12:25N 35°17' E 139°41'0 0.0
2014-Aug-20 11:33N 35°17' E 139°41'0 0.0
2014-Aug-20 10:32N 35°17' E 139°41'6 5.8
2014-Aug-20 09:33N 35°14' E 139°46'1110.9
2014-Aug-20 08:33N 35°24' E 139°43'1 1.0
2014-Aug-20 07:33N 35°24' E 139°44'0 0.0
2014-Aug-20 06:33N 35°24' E 139°44'1 0.7
2014-Aug-20 05:33N 35°23' E 139°43'1010.4
2014-Aug-20 04:33N 35°13' E 139°46'1211.6
2014-Aug-20 03:33N 35°24' E 139°43'1212.2
2014-Aug-20 02:33N 35°29' E 139°56'1 1.3
2014-Aug-20 01:33N 35°29' E 139°58'8 8.2
2014-Aug-20 00:33N 35°25' E 139°49'1010.2
2014-Aug-19 23:33N 35°17' E 139°41'0 0.0
2014-Aug-19 22:33N 35°17' E 139°41'0 0.0
2014-Aug-19 21:33N 35°17' E 139°41'0 0.0
2014-Aug-19 20:33N 35°17' E 139°41'0 0.0
2014-Aug-19 19:33N 35°17' E 139°41'0 0.0
2014-Aug-19 18:32N 35°17' E 139°41'0 0.0
2014-Aug-19 17:33N 35°17' E 139°41'0 0.0
2014-Aug-19 16:33N 35°17' E 139°41'0 0.0
2014-Aug-19 15:33N 35°17' E 139°41'0 0.0
2014-Aug-19 14:33N 35°17' E 139°41'0 0.0
2014-Aug-19 13:33N 35°17' E 139°41'0 0.0
2014-Aug-19 12:33N 35°17' E 139°41'0 0.0
2014-Aug-19 11:33N 35°17' E 139°41'0 0.0
2014-Aug-19 10:33N 35°17' E 139°41'0 0.0
2014-Aug-19 09:33N 35°17' E 139°41'0 0.0
2014-Aug-19 08:32N 35°17' E 139°41'0 0.0
2014-Aug-19 07:33N 35°17' E 139°41'0 0.0
2014-Aug-19 06:31N 35°17' E 139°41'0 0.0
2014-Aug-19 05:33N 35°17' E 139°41'0 0.0
2014-Aug-19 04:33N 35°17' E 139°41'0 0.0
2014-Aug-19 03:33N 35°17' E 139°41'3 2.9
2014-Aug-19 02:33N 35°20' E 139°42'6 6.2
2014-Aug-19 01:33N 35°25' E 139°46'1211.9
2014-Aug-19 00:33N 35°13' E 139°47'1 0.8
2014-Aug-18 23:33N 35°13' E 139°46'8 8.3
2014-Aug-18 22:33N 35°21' E 139°42'10 9.7
2014-Aug-18 21:32N 35°12' E 139°47'4 3.7
2014-Aug-18 20:33N 35°13' E 139°43'0 0.0
2014-Aug-18 19:29N 35°13' E 139°43'0 0.0
2014-Aug-18 18:19N 35°13' E 139°43'0 0.0
2014-Aug-18 17:33N 35°13' E 139°43'0 0.0
2014-Aug-18 16:33N 35°13' E 139°43'0 0.0
2014-Aug-18 15:31N 35°13' E 139°43'0 0.0
2014-Aug-18 14:33N 35°13' E 139°43'0 0.0
2014-Aug-18 13:33N 35°13' E 139°43'0 0.0
2014-Aug-18 12:33N 35°13' E 139°43'4 3.8
2014-Aug-18 11:33N 35°16' E 139°46'1111.1
2014-Aug-18 10:33N 35°27' E 139°47'1110.9
2014-Aug-18 09:33N 35°34' E 139°58'9 8.7
2014-Aug-18 08:33N 35°30' E 139°48'9 9.0
2014-Aug-18 07:33N 35°22' E 139°43'9 8.4
2014-Aug-18 06:33N 35°14' E 139°46'1110.9
2014-Aug-18 05:34N 35°25' E 139°43'7 6.5
2014-Aug-18 04:34N 35°20' E 139°49'3 2.7
2014-Aug-18 03:34N 35°21' E 139°46'6 5.9
2014-Aug-18 02:33N 35°17' E 139°41'0 0.0
2014-Aug-18 01:34N 35°17' E 139°41'0 0.0
2014-Aug-18 00:33N 35°17' E 139°41'  
Track history (hours):
 
Tides and Currents Weather Stations Pressure Air Temp Water Temp Dewpoint Dewpoint Depression Visibility Wind Speed Wind Dir Waves Ship Positions

Uraga Maru

Last reported at 2014-Aug-27 22:32 UTC. Time now 2014-Aug-27 23:15 UTC.
Position N 35°17' E 139°41'.

Length 40 m; draft 2.8 m.

Type: Tug. MMSI: 431101119.

Date/timePositionNaut miles runAvg speedWind from/ knotsBaromVisibWave heightAir tempDewpointWater temp
2014-Aug-27 22:32N 35°17' E 139°41'0 0.0
2014-Aug-27 09:29N 35°17' E 139°41'2 2.2
2014-Aug-27 08:33N 35°19' E 139°39'1 0.8
2014-Aug-27 07:34N 35°19' E 139°40'0 0.1
2014-Aug-27 06:33N 35°19' E 139°40'5 4.8
2014-Aug-27 05:34N 35°16' E 139°45'3 3.3
2014-Aug-27 04:33N 35°19' E 139°43'4 4.2
2014-Aug-27 03:33N 35°23' E 139°40'0 0.0
2014-Aug-27 02:33N 35°23' E 139°40'4 4.0
2014-Aug-27 01:33N 35°22' E 139°45'10 9.8
2014-Aug-27 00:33N 35°12' E 139°47'2 2.2
2014-Aug-26 23:33N 35°10' E 139°47'7 7.1
2014-Aug-26 22:33N 35°17' E 139°45'1 0.7
2014-Aug-26 21:33N 35°17' E 139°45'6 6.2
2014-Aug-26 20:33N 35°11' E 139°47'8 7.7
2014-Aug-26 19:33N 35°17' E 139°41'0 0.0
2014-Aug-26 18:33N 35°17' E 139°41'0 0.0
2014-Aug-26 17:33N 35°17' E 139°41'0 0.0
2014-Aug-26 16:33N 35°17' E 139°41'0 0.0
2014-Aug-26 15:33N 35°17' E 139°41'0 0.0
2014-Aug-26 14:33N 35°17' E 139°41'0 0.0
2014-Aug-26 13:33N 35°17' E 139°41'0 0.0
2014-Aug-26 12:33N 35°17' E 139°41'0 0.0
2014-Aug-26 11:33N 35°17' E 139°41'0 0.0
2014-Aug-26 10:33N 35°17' E 139°41'0 0.0
2014-Aug-26 05:22N 35°17' E 139°41'6 7.0
2014-Aug-26 04:33N 35°14' E 139°46'1111.0
2014-Aug-26 03:33N 35°25' E 139°43'1211.9
2014-Aug-26 02:34N 35°30' E 139°56'1 1.5
2014-Aug-26 01:33N 35°29' E 139°58'9 9.1
2014-Aug-26 00:33N 35°23' E 139°48'9 9.1
2014-Aug-25 23:33N 35°17' E 139°41'0 0.0
2014-Aug-25 22:32N 35°17' E 139°41'0 0.0
2014-Aug-25 21:33N 35°17' E 139°41'0 0.0
2014-Aug-25 20:33N 35°17' E 139°41'0 0.0
2014-Aug-25 19:32N 35°17' E 139°41'0 0.0
2014-Aug-25 18:33N 35°17' E 139°41'0 0.0
2014-Aug-25 17:32N 35°17' E 139°41'0 0.0
2014-Aug-25 16:31N 35°17' E 139°41'0 0.0
2014-Aug-25 15:32N 35°17' E 139°41'0 0.0
2014-Aug-25 14:31N 35°17' E 139°41'0 0.0
2014-Aug-25 13:30N 35°17' E 139°41'0 0.0
2014-Aug-25 12:32N 35°17' E 139°41'0 0.0
2014-Aug-25 11:33N 35°17' E 139°41'0 0.0
2014-Aug-25 10:33N 35°17' E 139°41'0 0.0
2014-Aug-25 09:29N 35°17' E 139°41'0 0.0
2014-Aug-25 08:32N 35°17' E 139°41'0 0.0
2014-Aug-25 07:32N 35°17' E 139°41'0 0.0
2014-Aug-25 06:31N 35°17' E 139°41'0 0.0
2014-Aug-25 05:26N 35°17' E 139°41'0 0.0
2014-Aug-25 04:33N 35°17' E 139°41'0 0.0
2014-Aug-25 03:33N 35°17' E 139°41'0 0.0
2014-Aug-25 02:33N 35°17' E 139°41'0 0.0
2014-Aug-25 01:33N 35°17' E 139°41'2 2.4
2014-Aug-25 00:33N 35°19' E 139°42'5 4.6
2014-Aug-24 23:34N 35°23' E 139°45'1111.0
2014-Aug-24 22:33N 35°12' E 139°47'3 2.9
2014-Aug-24 21:33N 35°14' E 139°46'3 2.8
2014-Aug-24 20:33N 35°17' E 139°45'7 7.1
2014-Aug-24 19:33N 35°10' E 139°47'3 2.8
2014-Aug-24 18:33N 35°13' E 139°45'10 9.7
2014-Aug-24 17:34N 35°22' E 139°42'2 1.6
2014-Aug-24 16:33N 35°23' E 139°44'0 0.0
2014-Aug-24 15:33N 35°23' E 139°44'7 6.8
2014-Aug-24 14:33N 35°16' E 139°45'3 3.1
2014-Aug-24 13:33N 35°19' E 139°43'7 6.5
2014-Aug-24 12:33N 35°24' E 139°48'2 2.0
2014-Aug-24 11:34N 35°23' E 139°51'0 0.0
2014-Aug-24 10:33N 35°23' E 139°51'8 8.3
2014-Aug-24 09:34N 35°17' E 139°44'3 2.6
2014-Aug-24 08:33N 35°19' E 139°43'6 5.6
2014-Aug-24 07:34N 35°25' E 139°42'8 7.6
2014-Aug-24 06:31N 35°17' E 139°41'0 0.0
2014-Aug-24 05:33N 35°17' E 139°41'0 0.0
2014-Aug-24 04:34N 35°17' E 139°41'0 0.0
2014-Aug-24 03:29N 35°17' E 139°41'0 0.0
2014-Aug-24 02:33N 35°17' E 139°41'0 0.0
2014-Aug-24 01:31N 35°17' E 139°41'0 0.0
2014-Aug-24 00:26N 35°17' E 139°41'0 0.0
2014-Aug-23 23:20N 35°17' E 139°41'0 0.2
2014-Aug-23 22:34N 35°17' E 139°41'0 0.0
2014-Aug-23 21:33N 35°17' E 139°41'0 0.0
2014-Aug-23 20:33N 35°17' E 139°41'0 0.0
2014-Aug-23 19:33N 35°17' E 139°41'0 0.0
2014-Aug-23 03:33N 35°17' E 139°41'0 0.0
2014-Aug-23 02:34N 35°17' E 139°41'0 0.0
2014-Aug-23 01:34N 35°17' E 139°41'0 0.0
2014-Aug-23 00:33N 35°17' E 139°41'4 4.4
2014-Aug-22 23:33N 35°15' E 139°45'4 4.3
2014-Aug-22 22:33N 35°19' E 139°43'9 9.2
2014-Aug-22 21:33N 35°28' E 139°45'9 8.6
2014-Aug-22 20:33N 35°20' E 139°44'10 9.7
2014-Aug-22 19:33N 35°10' E 139°48'9 8.9
2014-Aug-22 18:34N 35°17' E 139°41'0 0.2
2014-Aug-22 17:33N 35°17' E 139°41'0 0.0
2014-Aug-22 16:33N 35°17' E 139°41'0 0.0
2014-Aug-22 15:33N 35°17' E 139°41'0 0.0
2014-Aug-22 14:33N 35°17' E 139°41'0 0.0
2014-Aug-22 13:33N 35°17' E 139°41'2 1.9
2014-Aug-22 12:33N 35°19' E 139°42'4 4.2
2014-Aug-22 11:33N 35°16' E 139°46'5 5.4
2014-Aug-22 10:33N 35°11' E 139°47'4 3.2
2014-Aug-22 09:16N 35°13' E 139°43'0 0.0
2014-Aug-22 08:32N 35°13' E 139°43'4 4.5
2014-Aug-22 07:33N 35°17' E 139°41'1 0.6
2014-Aug-22 06:32N 35°17' E 139°41'0 0.0
2014-Aug-22 05:33N 35°17' E 139°41'0 0.0
2014-Aug-22 04:33N 35°17' E 139°41'0 0.0
2014-Aug-22 03:32N 35°17' E 139°41'0 0.0
2014-Aug-22 02:33N 35°17' E 139°41'0 0.0
2014-Aug-22 01:32N 35°17' E 139°41'0 0.0
2014-Aug-22 00:33N 35°17' E 139°41'0 0.0
2014-Aug-21 23:33N 35°17' E 139°41'0 0.1
2014-Aug-21 22:33N 35°17' E 139°41'0 0.0
2014-Aug-21 21:33N 35°17' E 139°41'0 0.0
2014-Aug-21 20:33N 35°17' E 139°41'0 0.0
2014-Aug-21 19:33N 35°17' E 139°41'0 0.0
2014-Aug-21 18:33N 35°17' E 139°41'0 0.0
2014-Aug-21 17:33N 35°17' E 139°41'0 0.0
2014-Aug-21 16:33N 35°17' E 139°41'0 0.0
2014-Aug-21 15:31N 35°17' E 139°41'0 0.0
2014-Aug-21 14:33N 35°17' E 139°41'0 0.0
2014-Aug-21 13:33N 35°17' E 139°41'0 0.0
2014-Aug-21 12:33N 35°17' E 139°41'0 0.0
2014-Aug-21 11:33N 35°17' E 139°41'0 0.0
2014-Aug-21 10:33N 35°17' E 139°41'0 0.0
2014-Aug-21 09:33N 35°17' E 139°41'0 0.0
2014-Aug-21 08:33N 35°17' E 139°41'0 0.0
2014-Aug-21 07:33N 35°17' E 139°41'0 0.0
2014-Aug-21 06:33N 35°17' E 139°41'0 0.0
2014-Aug-21 05:31N 35°17' E 139°41'0 0.0
2014-Aug-21 04:32N 35°17' E 139°41'0 0.0
2014-Aug-21 03:33N 35°17' E 139°41'6 5.8
2014-Aug-21 02:33N 35°14' E 139°46'10 9.9
2014-Aug-21 01:33N 35°23' E 139°42'7 6.5
2014-Aug-21 00:34N 35°23' E 139°50'0 0.4
2014-Aug-20 23:33N 35°23' E 139°50'10 9.5
2014-Aug-20 22:33N 35°17' E 139°41'0 0.2
2014-Aug-20 21:33N 35°17' E 139°41'0 0.3
2014-Aug-20 20:33N 35°17' E 139°41'0 0.0
2014-Aug-20 19:29N 35°17' E 139°41'0 0.0
2014-Aug-20 18:30N 35°17' E 139°41'0 0.0
2014-Aug-20 17:24N 35°17' E 139°41'0 0.0
2014-Aug-20 16:30N 35°17' E 139°41'0 0.0
2014-Aug-20 15:34N 35°17' E 139°41'0 0.0
2014-Aug-20 14:30N 35°17' E 139°41'0 0.0
2014-Aug-20 12:25N 35°17' E 139°41'0 0.0
2014-Aug-20 11:33N 35°17' E 139°41'0 0.0
2014-Aug-20 10:32N 35°17' E 139°41'6 5.8
2014-Aug-20 09:33N 35°14' E 139°46'1110.9
2014-Aug-20 08:33N 35°24' E 139°43'1 1.0
2014-Aug-20 07:33N 35°24' E 139°44'0 0.0
2014-Aug-20 06:33N 35°24' E 139°44'1 0.7
2014-Aug-20 05:33N 35°23' E 139°43'1010.4
2014-Aug-20 04:33N 35°13' E 139°46'1211.6
2014-Aug-20 03:33N 35°24' E 139°43'1212.2
2014-Aug-20 02:33N 35°29' E 139°56'1 1.3
2014-Aug-20 01:33N 35°29' E 139°58'8 8.2
2014-Aug-20 00:33N 35°25' E 139°49'1010.2
2014-Aug-19 23:33N 35°17' E 139°41'0 0.0
2014-Aug-19 22:33N 35°17' E 139°41'0 0.0
2014-Aug-19 21:33N 35°17' E 139°41'0 0.0
2014-Aug-19 20:33N 35°17' E 139°41'0 0.0
2014-Aug-19 19:33N 35°17' E 139°41'0 0.0
2014-Aug-19 18:32N 35°17' E 139°41'0 0.0
2014-Aug-19 17:33N 35°17' E 139°41'0 0.0
2014-Aug-19 16:33N 35°17' E 139°41'0 0.0
2014-Aug-19 15:33N 35°17' E 139°41'0 0.0
2014-Aug-19 14:33N 35°17' E 139°41'0 0.0
2014-Aug-19 13:33N 35°17' E 139°41'0 0.0
2014-Aug-19 12:33N 35°17' E 139°41'0 0.0
2014-Aug-19 11:33N 35°17' E 139°41'0 0.0
2014-Aug-19 10:33N 35°17' E 139°41'0 0.0
2014-Aug-19 09:33N 35°17' E 139°41'0 0.0
2014-Aug-19 08:32N 35°17' E 139°41'0 0.0
2014-Aug-19 07:33N 35°17' E 139°41'0 0.0
2014-Aug-19 06:31N 35°17' E 139°41'0 0.0
2014-Aug-19 05:33N 35°17' E 139°41'0 0.0
2014-Aug-19 04:33N 35°17' E 139°41'0 0.0
2014-Aug-19 03:33N 35°17' E 139°41'3 2.9
2014-Aug-19 02:33N 35°20' E 139°42'6 6.2
2014-Aug-19 01:33N 35°25' E 139°46'1211.9
2014-Aug-19 00:33N 35°13' E 139°47'1 0.8
2014-Aug-18 23:33N 35°13' E 139°46'8 8.3
2014-Aug-18 22:33N 35°21' E 139°42'10 9.7
2014-Aug-18 21:32N 35°12' E 139°47'4 3.7
2014-Aug-18 20:33N 35°13' E 139°43'0 0.0
2014-Aug-18 19:29N 35°13' E 139°43'0 0.0
2014-Aug-18 18:19N 35°13' E 139°43'0 0.0
2014-Aug-18 17:33N 35°13' E 139°43'0 0.0
2014-Aug-18 16:33N 35°13' E 139°43'0 0.0
2014-Aug-18 15:31N 35°13' E 139°43'0 0.0
2014-Aug-18 14:33N 35°13' E 139°43'0 0.0
2014-Aug-18 13:33N 35°13' E 139°43'0 0.0
2014-Aug-18 12:33N 35°13' E 139°43'4 3.8
2014-Aug-18 11:33N 35°16' E 139°46'1111.1
2014-Aug-18 10:33N 35°27' E 139°47'1110.9
2014-Aug-18 09:33N 35°34' E 139°58'9 8.7
2014-Aug-18 08:33N 35°30' E 139°48'9 9.0
2014-Aug-18 07:33N 35°22' E 139°43'9 8.4
2014-Aug-18 06:33N 35°14' E 139°46'1110.9
2014-Aug-18 05:34N 35°25' E 139°43'7 6.5
2014-Aug-18 04:34N 35°20' E 139°49'3 2.7
2014-Aug-18 03:34N 35°21' E 139°46'6 5.9
2014-Aug-18 02:33N 35°17' E 139°41'0 0.0
2014-Aug-18 01:34N 35°17' E 139°41'0 0.0
2014-Aug-18 00:33N 35°17' E 139°41'  

Dump ship's entire track history